sensor_id;sensor_type;location;lat;lon;timestamp;P1;durP1;ratioP1;P2;durP2;ratioP2
15629;SDS011;7914;50.842;0.166;2023-10-08T00:01:20;7.63;;;2.90;;
15629;SDS011;7914;50.842;0.166;2023-10-08T00:03:47;8.63;;;2.53;;
15629;SDS011;7914;50.842;0.166;2023-10-08T00:06:19;6.05;;;2.03;;
15629;SDS011;7914;50.842;0.166;2023-10-08T00:08:49;7.38;;;2.50;;
15629;SDS011;7914;50.842;0.166;2023-10-08T00:11:15;6.15;;;2.08;;
15629;SDS011;7914;50.842;0.166;2023-10-08T00:13:42;8.38;;;2.38;;
15629;SDS011;7914;50.842;0.166;2023-10-08T00:16:12;7.07;;;2.22;;
15629;SDS011;7914;50.842;0.166;2023-10-08T00:18:42;8.52;;;2.72;;
15629;SDS011;7914;50.842;0.166;2023-10-08T00:21:18;5.88;;;1.83;;
15629;SDS011;7914;50.842;0.166;2023-10-08T00:23:46;6.28;;;2.15;;
15629;SDS011;7914;50.842;0.166;2023-10-08T00:26:17;5.85;;;2.20;;
15629;SDS011;7914;50.842;0.166;2023-10-08T00:28:48;6.70;;;2.28;;
15629;SDS011;7914;50.842;0.166;2023-10-08T00:31:16;7.22;;;2.28;;
15629;SDS011;7914;50.842;0.166;2023-10-08T00:33:42;7.18;;;2.08;;
15629;SDS011;7914;50.842;0.166;2023-10-08T00:36:12;8.20;;;2.67;;
15629;SDS011;7914;50.842;0.166;2023-10-08T00:38:47;5.85;;;2.10;;
15629;SDS011;7914;50.842;0.166;2023-10-08T00:41:25;7.00;;;2.33;;
15629;SDS011;7914;50.842;0.166;2023-10-08T00:43:55;7.22;;;2.22;;
15629;SDS011;7914;50.842;0.166;2023-10-08T00:46:24;7.15;;;2.20;;
15629;SDS011;7914;50.842;0.166;2023-10-08T00:48:58;6.95;;;2.22;;
15629;SDS011;7914;50.842;0.166;2023-10-08T00:51:42;8.50;;;2.50;;
15629;SDS011;7914;50.842;0.166;2023-10-08T00:54:10;8.52;;;2.80;;
15629;SDS011;7914;50.842;0.166;2023-10-08T00:56:42;7.28;;;2.17;;
15629;SDS011;7914;50.842;0.166;2023-10-08T00:59:25;8.55;;;2.25;;
15629;SDS011;7914;50.842;0.166;2023-10-08T01:01:52;10.25;;;2.55;;
15629;SDS011;7914;50.842;0.166;2023-10-08T01:04:31;7.20;;;2.50;;
15629;SDS011;7914;50.842;0.166;2023-10-08T01:07:02;8.30;;;2.65;;
15629;SDS011;7914;50.842;0.166;2023-10-08T01:09:38;6.45;;;2.47;;
15629;SDS011;7914;50.842;0.166;2023-10-08T01:12:20;10.45;;;2.83;;
15629;SDS011;7914;50.842;0.166;2023-10-08T01:14:58;7.85;;;3.00;;
15629;SDS011;7914;50.842;0.166;2023-10-08T01:17:38;7.85;;;3.05;;
15629;SDS011;7914;50.842;0.166;2023-10-08T01:20:17;7.20;;;2.50;;
15629;SDS011;7914;50.842;0.166;2023-10-08T01:23:15;6.07;;;2.70;;
15629;SDS011;7914;50.842;0.166;2023-10-08T01:25:53;9.70;;;2.47;;
15629;SDS011;7914;50.842;0.166;2023-10-08T01:28:37;6.57;;;2.03;;
15629;SDS011;7914;50.842;0.166;2023-10-08T01:31:03;7.32;;;2.38;;
15629;SDS011;7914;50.842;0.166;2023-10-08T01:33:30;9.45;;;2.30;;
15629;SDS011;7914;50.842;0.166;2023-10-08T01:36:04;8.63;;;2.63;;
15629;SDS011;7914;50.842;0.166;2023-10-08T01:38:30;6.88;;;2.30;;
15629;SDS011;7914;50.842;0.166;2023-10-08T01:40:59;8.63;;;2.65;;
15629;SDS011;7914;50.842;0.166;2023-10-08T01:43:30;8.57;;;2.83;;
15629;SDS011;7914;50.842;0.166;2023-10-08T01:45:56;4.45;;;1.92;;
15629;SDS011;7914;50.842;0.166;2023-10-08T01:48:22;8.52;;;2.85;;
15629;SDS011;7914;50.842;0.166;2023-10-08T01:50:58;8.52;;;3.20;;
15629;SDS011;7914;50.842;0.166;2023-10-08T01:53:29;5.97;;;2.40;;
15629;SDS011;7914;50.842;0.166;2023-10-08T01:55:56;8.93;;;2.60;;
15629;SDS011;7914;50.842;0.166;2023-10-08T01:58:23;6.65;;;2.55;;
15629;SDS011;7914;50.842;0.166;2023-10-08T02:00:49;7.38;;;2.00;;
15629;SDS011;7914;50.842;0.166;2023-10-08T02:03:17;8.35;;;2.20;;
15629;SDS011;7914;50.842;0.166;2023-10-08T02:05:46;8.10;;;2.97;;
15629;SDS011;7914;50.842;0.166;2023-10-08T02:08:12;6.85;;;2.67;;
15629;SDS011;7914;50.842;0.166;2023-10-08T02:10:40;10.75;;;2.63;;
15629;SDS011;7914;50.842;0.166;2023-10-08T02:13:08;9.18;;;2.55;;
15629;SDS011;7914;50.842;0.166;2023-10-08T02:15:36;6.70;;;2.28;;
15629;SDS011;7914;50.842;0.166;2023-10-08T02:18:08;6.95;;;2.33;;
15629;SDS011;7914;50.842;0.166;2023-10-08T02:20:33;8.93;;;2.70;;
15629;SDS011;7914;50.842;0.166;2023-10-08T02:22:59;7.80;;;2.60;;
15629;SDS011;7914;50.842;0.166;2023-10-08T02:25:25;6.78;;;2.25;;
15629;SDS011;7914;50.842;0.166;2023-10-08T02:27:51;7.65;;;2.30;;
15629;SDS011;7914;50.842;0.166;2023-10-08T02:30:18;11.68;;;3.05;;
15629;SDS011;7914;50.842;0.166;2023-10-08T02:32:44;7.13;;;2.40;;
15629;SDS011;7914;50.842;0.166;2023-10-08T02:35:11;6.43;;;2.67;;
15629;SDS011;7914;50.842;0.166;2023-10-08T02:37:38;9.18;;;2.67;;
15629;SDS011;7914;50.842;0.166;2023-10-08T02:40:08;7.95;;;2.40;;
15629;SDS011;7914;50.842;0.166;2023-10-08T02:42:54;6.13;;;2.15;;
15629;SDS011;7914;50.842;0.166;2023-10-08T02:45:27;9.80;;;3.08;;
15629;SDS011;7914;50.842;0.166;2023-10-08T02:47:53;8.85;;;3.55;;
15629;SDS011;7914;50.842;0.166;2023-10-08T02:50:20;6.88;;;2.72;;
15629;SDS011;7914;50.842;0.166;2023-10-08T02:52:50;9.75;;;2.92;;
15629;SDS011;7914;50.842;0.166;2023-10-08T02:55:16;9.45;;;3.03;;
15629;SDS011;7914;50.842;0.166;2023-10-08T02:57:50;10.88;;;3.58;;
15629;SDS011;7914;50.842;0.166;2023-10-08T03:00:16;8.27;;;3.25;;
15629;SDS011;7914;50.842;0.166;2023-10-08T03:02:45;7.57;;;2.22;;
15629;SDS011;7914;50.842;0.166;2023-10-08T03:05:11;10.63;;;3.13;;
15629;SDS011;7914;50.842;0.166;2023-10-08T03:07:41;9.93;;;3.25;;
15629;SDS011;7914;50.842;0.166;2023-10-08T03:10:07;7.35;;;2.95;;
15629;SDS011;7914;50.842;0.166;2023-10-08T03:12:46;8.20;;;2.97;;
15629;SDS011;7914;50.842;0.166;2023-10-08T03:15:12;8.90;;;2.78;;
15629;SDS011;7914;50.842;0.166;2023-10-08T03:17:52;9.20;;;3.05;;
15629;SDS011;7914;50.842;0.166;2023-10-08T03:20:19;8.65;;;2.70;;
15629;SDS011;7914;50.842;0.166;2023-10-08T03:23:15;10.63;;;3.17;;
15629;SDS011;7914;50.842;0.166;2023-10-08T03:25:58;6.70;;;2.35;;
15629;SDS011;7914;50.842;0.166;2023-10-08T03:28:26;8.18;;;2.83;;
15629;SDS011;7914;50.842;0.166;2023-10-08T03:30:53;8.23;;;3.40;;
15629;SDS011;7914;50.842;0.166;2023-10-08T03:33:32;10.98;;;3.47;;
15629;SDS011;7914;50.842;0.166;2023-10-08T03:36:03;9.18;;;3.40;;
15629;SDS011;7914;50.842;0.166;2023-10-08T03:38:59;6.18;;;2.80;;
15629;SDS011;7914;50.842;0.166;2023-10-08T03:41:34;8.10;;;3.08;;
15629;SDS011;7914;50.842;0.166;2023-10-08T03:44:05;10.00;;;3.20;;
15629;SDS011;7914;50.842;0.166;2023-10-08T03:46:37;6.30;;;3.08;;
15629;SDS011;7914;50.842;0.166;2023-10-08T03:49:15;9.27;;;3.08;;
15629;SDS011;7914;50.842;0.166;2023-10-08T03:51:44;9.77;;;2.83;;
15629;SDS011;7914;50.842;0.166;2023-10-08T03:54:09;8.45;;;3.33;;
15629;SDS011;7914;50.842;0.166;2023-10-08T03:56:41;9.07;;;3.38;;
15629;SDS011;7914;50.842;0.166;2023-10-08T03:59:14;9.32;;;3.28;;
15629;SDS011;7914;50.842;0.166;2023-10-08T04:02:00;8.85;;;2.97;;
15629;SDS011;7914;50.842;0.166;2023-10-08T04:04:42;8.75;;;3.08;;
15629;SDS011;7914;50.842;0.166;2023-10-08T04:07:25;9.73;;;2.80;;
15629;SDS011;7914;50.842;0.166;2023-10-08T04:10:04;8.88;;;2.75;;
15629;SDS011;7914;50.842;0.166;2023-10-08T04:12:33;9.93;;;3.67;;
15629;SDS011;7914;50.842;0.166;2023-10-08T04:15:09;8.13;;;3.17;;
15629;SDS011;7914;50.842;0.166;2023-10-08T04:17:37;8.88;;;3.03;;
15629;SDS011;7914;50.842;0.166;2023-10-08T04:20:13;8.43;;;2.78;;
15629;SDS011;7914;50.842;0.166;2023-10-08T04:22:59;11.35;;;3.33;;
15629;SDS011;7914;50.842;0.166;2023-10-08T04:25:28;10.02;;;3.42;;
15629;SDS011;7914;50.842;0.166;2023-10-08T04:27:55;8.88;;;3.05;;
15629;SDS011;7914;50.842;0.166;2023-10-08T04:30:34;7.90;;;3.05;;
15629;SDS011;7914;50.842;0.166;2023-10-08T04:35:32;8.13;;;3.20;;
15629;SDS011;7914;50.842;0.166;2023-10-08T04:38:04;9.65;;;3.30;;
15629;SDS011;7914;50.842;0.166;2023-10-08T04:40:36;9.88;;;3.70;;
15629;SDS011;7914;50.842;0.166;2023-10-08T04:43:07;9.57;;;3.35;;
15629;SDS011;7914;50.842;0.166;2023-10-08T04:45:36;11.05;;;3.22;;
15629;SDS011;7914;50.842;0.166;2023-10-08T04:48:03;10.23;;;3.58;;
15629;SDS011;7914;50.842;0.166;2023-10-08T04:50:34;9.75;;;3.67;;
15629;SDS011;7914;50.842;0.166;2023-10-08T04:53:01;9.18;;;3.97;;
15629;SDS011;7914;50.842;0.166;2023-10-08T04:55:33;12.70;;;4.18;;
15629;SDS011;7914;50.842;0.166;2023-10-08T04:58:07;10.75;;;4.15;;
15629;SDS011;7914;50.842;0.166;2023-10-08T05:00:45;9.00;;;3.63;;
15629;SDS011;7914;50.842;0.166;2023-10-08T05:03:24;10.63;;;3.90;;
15629;SDS011;7914;50.842;0.166;2023-10-08T05:05:57;13.10;;;4.45;;
15629;SDS011;7914;50.842;0.166;2023-10-08T05:08:34;10.30;;;4.00;;
15629;SDS011;7914;50.842;0.166;2023-10-08T05:11:29;11.30;;;3.65;;
15629;SDS011;7914;50.842;0.166;2023-10-08T05:14:15;9.57;;;3.47;;
15629;SDS011;7914;50.842;0.166;2023-10-08T05:17:07;9.90;;;3.72;;
15629;SDS011;7914;50.842;0.166;2023-10-08T05:19:47;8.20;;;3.80;;
15629;SDS011;7914;50.842;0.166;2023-10-08T05:22:46;10.15;;;3.65;;
15629;SDS011;7914;50.842;0.166;2023-10-08T05:25:20;8.73;;;3.13;;
15629;SDS011;7914;50.842;0.166;2023-10-08T05:27:46;9.80;;;3.20;;
15629;SDS011;7914;50.842;0.166;2023-10-08T05:30:12;10.60;;;3.63;;
15629;SDS011;7914;50.842;0.166;2023-10-08T05:32:44;8.52;;;3.45;;
15629;SDS011;7914;50.842;0.166;2023-10-08T05:35:31;11.80;;;4.18;;
15629;SDS011;7914;50.842;0.166;2023-10-08T05:38:13;8.85;;;3.70;;
15629;SDS011;7914;50.842;0.166;2023-10-08T05:40:55;9.02;;;3.40;;
15629;SDS011;7914;50.842;0.166;2023-10-08T05:43:28;7.40;;;2.80;;
15629;SDS011;7914;50.842;0.166;2023-10-08T05:46:06;7.53;;;3.15;;
15629;SDS011;7914;50.842;0.166;2023-10-08T05:48:52;7.43;;;3.10;;
15629;SDS011;7914;50.842;0.166;2023-10-08T05:51:41;9.15;;;3.25;;
15629;SDS011;7914;50.842;0.166;2023-10-08T05:54:14;8.85;;;3.15;;
15629;SDS011;7914;50.842;0.166;2023-10-08T05:57:05;9.68;;;3.50;;
15629;SDS011;7914;50.842;0.166;2023-10-08T05:59:35;12.15;;;4.30;;
15629;SDS011;7914;50.842;0.166;2023-10-08T06:02:17;13.18;;;4.43;;
15629;SDS011;7914;50.842;0.166;2023-10-08T06:05:13;9.90;;;3.72;;
15629;SDS011;7914;50.842;0.166;2023-10-08T06:07:45;10.93;;;4.85;;
15629;SDS011;7914;50.842;0.166;2023-10-08T06:10:19;14.00;;;5.43;;
15629;SDS011;7914;50.842;0.166;2023-10-08T06:13:02;12.40;;;5.13;;
15629;SDS011;7914;50.842;0.166;2023-10-08T06:15:44;12.65;;;6.22;;
15629;SDS011;7914;50.842;0.166;2023-10-08T06:18:31;12.98;;;5.30;;
15629;SDS011;7914;50.842;0.166;2023-10-08T06:20:59;13.48;;;4.75;;
15629;SDS011;7914;50.842;0.166;2023-10-08T06:23:34;12.45;;;4.63;;
15629;SDS011;7914;50.842;0.166;2023-10-08T06:26:03;10.45;;;4.13;;
15629;SDS011;7914;50.842;0.166;2023-10-08T06:28:35;12.40;;;3.78;;
15629;SDS011;7914;50.842;0.166;2023-10-08T06:31:01;9.80;;;3.97;;
15629;SDS011;7914;50.842;0.166;2023-10-08T06:33:31;10.52;;;3.95;;
15629;SDS011;7914;50.842;0.166;2023-10-08T06:36:01;8.90;;;3.33;;
15629;SDS011;7914;50.842;0.166;2023-10-08T06:38:30;11.38;;;3.63;;
15629;SDS011;7914;50.842;0.166;2023-10-08T06:41:00;11.32;;;4.35;;
15629;SDS011;7914;50.842;0.166;2023-10-08T06:43:54;11.60;;;3.85;;
15629;SDS011;7914;50.842;0.166;2023-10-08T06:46:39;11.98;;;3.90;;
15629;SDS011;7914;50.842;0.166;2023-10-08T06:49:06;11.27;;;4.57;;
15629;SDS011;7914;50.842;0.166;2023-10-08T06:51:37;8.23;;;3.20;;
15629;SDS011;7914;50.842;0.166;2023-10-08T06:54:03;12.52;;;3.67;;
15629;SDS011;7914;50.842;0.166;2023-10-08T06:56:35;11.73;;;4.03;;
15629;SDS011;7914;50.842;0.166;2023-10-08T06:59:00;9.30;;;4.03;;
15629;SDS011;7914;50.842;0.166;2023-10-08T07:01:26;14.00;;;4.35;;
15629;SDS011;7914;50.842;0.166;2023-10-08T07:04:04;8.35;;;3.78;;
15629;SDS011;7914;50.842;0.166;2023-10-08T07:06:40;9.75;;;4.00;;
15629;SDS011;7914;50.842;0.166;2023-10-08T07:09:08;11.32;;;4.72;;
15629;SDS011;7914;50.842;0.166;2023-10-08T07:11:50;10.75;;;3.92;;
15629;SDS011;7914;50.842;0.166;2023-10-08T07:16:52;11.20;;;3.92;;
15629;SDS011;7914;50.842;0.166;2023-10-08T07:19:20;10.43;;;3.75;;
15629;SDS011;7914;50.842;0.166;2023-10-08T07:21:49;10.27;;;3.45;;
15629;SDS011;7914;50.842;0.166;2023-10-08T07:24:19;10.57;;;3.58;;
15629;SDS011;7914;50.842;0.166;2023-10-08T07:26:47;8.43;;;3.35;;
15629;SDS011;7914;50.842;0.166;2023-10-08T07:29:15;8.18;;;2.60;;
15629;SDS011;7914;50.842;0.166;2023-10-08T07:31:45;9.15;;;5.18;;
15629;SDS011;7914;50.842;0.166;2023-10-08T07:34:15;11.43;;;3.88;;
15629;SDS011;7914;50.842;0.166;2023-10-08T07:36:42;7.72;;;2.90;;
15629;SDS011;7914;50.842;0.166;2023-10-08T07:39:09;9.75;;;3.08;;
15629;SDS011;7914;50.842;0.166;2023-10-08T07:41:48;11.13;;;3.33;;
15629;SDS011;7914;50.842;0.166;2023-10-08T07:44:14;9.25;;;3.55;;
15629;SDS011;7914;50.842;0.166;2023-10-08T07:46:40;10.43;;;3.67;;
15629;SDS011;7914;50.842;0.166;2023-10-08T07:49:06;9.55;;;3.80;;
15629;SDS011;7914;50.842;0.166;2023-10-08T07:51:32;10.88;;;4.00;;
15629;SDS011;7914;50.842;0.166;2023-10-08T07:53:59;9.32;;;4.07;;
15629;SDS011;7914;50.842;0.166;2023-10-08T07:56:25;11.55;;;3.97;;
15629;SDS011;7914;50.842;0.166;2023-10-08T07:58:51;9.02;;;4.10;;
15629;SDS011;7914;50.842;0.166;2023-10-08T08:01:20;9.52;;;3.75;;
15629;SDS011;7914;50.842;0.166;2023-10-08T08:03:50;13.15;;;4.50;;
15629;SDS011;7914;50.842;0.166;2023-10-08T08:06:16;8.80;;;3.60;;
15629;SDS011;7914;50.842;0.166;2023-10-08T08:08:42;12.55;;;4.10;;
15629;SDS011;7914;50.842;0.166;2023-10-08T08:11:09;11.50;;;3.85;;
15629;SDS011;7914;50.842;0.166;2023-10-08T08:13:42;12.05;;;4.10;;
15629;SDS011;7914;50.842;0.166;2023-10-08T08:16:08;9.60;;;3.78;;
15629;SDS011;7914;50.842;0.166;2023-10-08T08:18:48;10.85;;;4.18;;
15629;SDS011;7914;50.842;0.166;2023-10-08T08:21:16;9.32;;;3.63;;
15629;SDS011;7914;50.842;0.166;2023-10-08T08:23:47;8.40;;;3.92;;
15629;SDS011;7914;50.842;0.166;2023-10-08T08:26:15;15.23;;;4.07;;
15629;SDS011;7914;50.842;0.166;2023-10-08T08:29:17;11.75;;;4.18;;
15629;SDS011;7914;50.842;0.166;2023-10-08T08:31:42;9.55;;;4.03;;
15629;SDS011;7914;50.842;0.166;2023-10-08T08:34:11;10.57;;;4.25;;
15629;SDS011;7914;50.842;0.166;2023-10-08T08:36:44;12.85;;;4.15;;
15629;SDS011;7914;50.842;0.166;2023-10-08T08:39:14;12.27;;;4.45;;
15629;SDS011;7914;50.842;0.166;2023-10-08T08:42:01;9.00;;;3.60;;
15629;SDS011;7914;50.842;0.166;2023-10-08T08:44:33;9.18;;;3.20;;
15629;SDS011;7914;50.842;0.166;2023-10-08T08:47:04;9.77;;;4.22;;
15629;SDS011;7914;50.842;0.166;2023-10-08T08:49:34;10.48;;;3.75;;
15629;SDS011;7914;50.842;0.166;2023-10-08T08:52:02;7.88;;;3.38;;
15629;SDS011;7914;50.842;0.166;2023-10-08T08:54:29;13.07;;;3.45;;
15629;SDS011;7914;50.842;0.166;2023-10-08T08:56:59;9.15;;;3.13;;
15629;SDS011;7914;50.842;0.166;2023-10-08T08:59:29;6.93;;;2.55;;
15629;SDS011;7914;50.842;0.166;2023-10-08T09:01:58;8.07;;;3.38;;
15629;SDS011;7914;50.842;0.166;2023-10-08T09:04:31;10.55;;;3.38;;
15629;SDS011;7914;50.842;0.166;2023-10-08T09:07:00;8.98;;;2.88;;
15629;SDS011;7914;50.842;0.166;2023-10-08T09:09:32;6.60;;;2.45;;
15629;SDS011;7914;50.842;0.166;2023-10-08T09:11:58;9.90;;;2.72;;
15629;SDS011;7914;50.842;0.166;2023-10-08T09:14:25;6.20;;;2.83;;
15629;SDS011;7914;50.842;0.166;2023-10-08T09:16:52;7.47;;;2.50;;
15629;SDS011;7914;50.842;0.166;2023-10-08T09:19:19;7.70;;;2.30;;
15629;SDS011;7914;50.842;0.166;2023-10-08T09:21:59;7.97;;;2.42;;
15629;SDS011;7914;50.842;0.166;2023-10-08T09:24:39;12.88;;;3.53;;
15629;SDS011;7914;50.842;0.166;2023-10-08T09:27:10;7.40;;;2.83;;
15629;SDS011;7914;50.842;0.166;2023-10-08T09:29:39;7.43;;;2.60;;
15629;SDS011;7914;50.842;0.166;2023-10-08T09:32:07;8.45;;;2.53;;
15629;SDS011;7914;50.842;0.166;2023-10-08T09:34:34;6.15;;;2.42;;
15629;SDS011;7914;50.842;0.166;2023-10-08T09:37:01;9.38;;;2.97;;
15629;SDS011;7914;50.842;0.166;2023-10-08T09:39:29;10.13;;;2.58;;
15629;SDS011;7914;50.842;0.166;2023-10-08T09:41:59;8.07;;;2.42;;
15629;SDS011;7914;50.842;0.166;2023-10-08T09:44:28;7.90;;;2.35;;
15629;SDS011;7914;50.842;0.166;2023-10-08T09:49:32;7.40;;;2.90;;
15629;SDS011;7914;50.842;0.166;2023-10-08T09:52:03;6.22;;;2.13;;
15629;SDS011;7914;50.842;0.166;2023-10-08T09:54:35;7.93;;;2.25;;
15629;SDS011;7914;50.842;0.166;2023-10-08T09:57:08;7.75;;;2.42;;
15629;SDS011;7914;50.842;0.166;2023-10-08T09:59:35;7.22;;;2.80;;
15629;SDS011;7914;50.842;0.166;2023-10-08T10:02:03;9.23;;;2.53;;
15629;SDS011;7914;50.842;0.166;2023-10-08T10:04:31;10.77;;;2.50;;
15629;SDS011;7914;50.842;0.166;2023-10-08T10:06:57;9.80;;;2.55;;
15629;SDS011;7914;50.842;0.166;2023-10-08T10:09:24;9.30;;;2.60;;
15629;SDS011;7914;50.842;0.166;2023-10-08T10:11:51;7.88;;;2.15;;
15629;SDS011;7914;50.842;0.166;2023-10-08T10:14:21;7.63;;;2.00;;
15629;SDS011;7914;50.842;0.166;2023-10-08T10:19:39;7.72;;;3.28;;
15629;SDS011;7914;50.842;0.166;2023-10-08T10:22:11;9.38;;;2.80;;
15629;SDS011;7914;50.842;0.166;2023-10-08T10:24:40;8.57;;;2.47;;
15629;SDS011;7914;50.842;0.166;2023-10-08T10:27:14;7.32;;;2.53;;
15629;SDS011;7914;50.842;0.166;2023-10-08T10:29:44;6.97;;;2.45;;
15629;SDS011;7914;50.842;0.166;2023-10-08T10:32:14;9.77;;;3.17;;
15629;SDS011;7914;50.842;0.166;2023-10-08T10:34:41;7.43;;;2.95;;
15629;SDS011;7914;50.842;0.166;2023-10-08T10:39:49;10.88;;;2.65;;
15629;SDS011;7914;50.842;0.166;2023-10-08T10:42:25;7.35;;;1.92;;
15629;SDS011;7914;50.842;0.166;2023-10-08T10:44:53;6.82;;;2.20;;
15629;SDS011;7914;50.842;0.166;2023-10-08T10:47:21;7.70;;;2.10;;
15629;SDS011;7914;50.842;0.166;2023-10-08T10:49:47;7.32;;;2.10;;
15629;SDS011;7914;50.842;0.166;2023-10-08T10:52:26;6.35;;;2.13;;
15629;SDS011;7914;50.842;0.166;2023-10-08T10:55:12;8.30;;;2.38;;
15629;SDS011;7914;50.842;0.166;2023-10-08T10:57:39;9.10;;;2.50;;
15629;SDS011;7914;50.842;0.166;2023-10-08T11:00:07;9.25;;;2.60;;
15629;SDS011;7914;50.842;0.166;2023-10-08T11:02:52;8.57;;;2.85;;
15629;SDS011;7914;50.842;0.166;2023-10-08T11:05:24;7.68;;;2.60;;
15629;SDS011;7914;50.842;0.166;2023-10-08T11:07:56;7.85;;;2.67;;
15629;SDS011;7914;50.842;0.166;2023-10-08T11:10:36;8.88;;;2.70;;
15629;SDS011;7914;50.842;0.166;2023-10-08T11:13:03;6.78;;;2.33;;
15629;SDS011;7914;50.842;0.166;2023-10-08T11:15:39;9.90;;;2.88;;
15629;SDS011;7914;50.842;0.166;2023-10-08T11:18:12;6.53;;;2.47;;
15629;SDS011;7914;50.842;0.166;2023-10-08T11:20:42;7.07;;;2.45;;
15629;SDS011;7914;50.842;0.166;2023-10-08T11:23:31;8.80;;;2.20;;
15629;SDS011;7914;50.842;0.166;2023-10-08T11:26:20;7.28;;;2.28;;
15629;SDS011;7914;50.842;0.166;2023-10-08T11:28:58;7.47;;;2.40;;
15629;SDS011;7914;50.842;0.166;2023-10-08T11:31:28;6.97;;;2.40;;
15629;SDS011;7914;50.842;0.166;2023-10-08T11:33:59;7.65;;;2.25;;
15629;SDS011;7914;50.842;0.166;2023-10-08T11:36:27;6.18;;;2.13;;
15629;SDS011;7914;50.842;0.166;2023-10-08T11:38:56;7.32;;;2.50;;
15629;SDS011;7914;50.842;0.166;2023-10-08T11:41:33;7.03;;;2.17;;
15629;SDS011;7914;50.842;0.166;2023-10-08T11:44:15;7.63;;;2.50;;
15629;SDS011;7914;50.842;0.166;2023-10-08T11:46:44;8.52;;;2.63;;
15629;SDS011;7914;50.842;0.166;2023-10-08T11:49:16;7.70;;;2.50;;
15629;SDS011;7914;50.842;0.166;2023-10-08T11:51:50;8.95;;;2.65;;
15629;SDS011;7914;50.842;0.166;2023-10-08T11:54:20;9.07;;;3.17;;
15629;SDS011;7914;50.842;0.166;2023-10-08T11:56:48;8.32;;;2.75;;
15629;SDS011;7914;50.842;0.166;2023-10-08T11:59:15;8.43;;;2.97;;
15629;SDS011;7914;50.842;0.166;2023-10-08T12:01:43;8.85;;;2.42;;
15629;SDS011;7914;50.842;0.166;2023-10-08T12:04:09;6.47;;;2.58;;
15629;SDS011;7914;50.842;0.166;2023-10-08T12:06:40;5.63;;;1.80;;
15629;SDS011;7914;50.842;0.166;2023-10-08T12:09:13;9.23;;;2.35;;
15629;SDS011;7914;50.842;0.166;2023-10-08T12:11:42;4.60;;;1.80;;
15629;SDS011;7914;50.842;0.166;2023-10-08T12:14:09;9.23;;;2.50;;
15629;SDS011;7914;50.842;0.166;2023-10-08T12:16:35;6.47;;;2.05;;
15629;SDS011;7914;50.842;0.166;2023-10-08T12:19:01;7.20;;;2.83;;
15629;SDS011;7914;50.842;0.166;2023-10-08T12:21:40;8.15;;;2.60;;
15629;SDS011;7914;50.842;0.166;2023-10-08T12:24:06;6.57;;;2.00;;
15629;SDS011;7914;50.842;0.166;2023-10-08T12:26:35;6.82;;;2.30;;
15629;SDS011;7914;50.842;0.166;2023-10-08T12:29:01;7.57;;;2.72;;
15629;SDS011;7914;50.842;0.166;2023-10-08T12:31:27;7.38;;;2.15;;
15629;SDS011;7914;50.842;0.166;2023-10-08T12:33:54;7.05;;;2.20;;
15629;SDS011;7914;50.842;0.166;2023-10-08T12:36:25;7.72;;;2.60;;
15629;SDS011;7914;50.842;0.166;2023-10-08T12:38:52;8.90;;;2.30;;
15629;SDS011;7914;50.842;0.166;2023-10-08T12:41:26;7.88;;;2.22;;
15629;SDS011;7914;50.842;0.166;2023-10-08T12:43:52;5.03;;;1.80;;
15629;SDS011;7914;50.842;0.166;2023-10-08T12:46:19;7.72;;;2.60;;
15629;SDS011;7914;50.842;0.166;2023-10-08T12:48:49;5.78;;;2.15;;
15629;SDS011;7914;50.842;0.166;2023-10-08T12:51:19;5.82;;;1.98;;
15629;SDS011;7914;50.842;0.166;2023-10-08T12:53:52;7.70;;;2.08;;
15629;SDS011;7914;50.842;0.166;2023-10-08T12:56:29;5.63;;;1.85;;
15629;SDS011;7914;50.842;0.166;2023-10-08T12:59:01;4.95;;;2.00;;
15629;SDS011;7914;50.842;0.166;2023-10-08T13:01:32;6.55;;;2.30;;
15629;SDS011;7914;50.842;0.166;2023-10-08T13:04:00;6.22;;;2.15;;
15629;SDS011;7914;50.842;0.166;2023-10-08T13:06:32;5.70;;;1.98;;
15629;SDS011;7914;50.842;0.166;2023-10-08T13:09:02;6.38;;;2.00;;
15629;SDS011;7914;50.842;0.166;2023-10-08T13:11:34;5.70;;;2.05;;
15629;SDS011;7914;50.842;0.166;2023-10-08T13:14:00;6.75;;;2.13;;
15629;SDS011;7914;50.842;0.166;2023-10-08T13:16:26;6.65;;;2.22;;
15629;SDS011;7914;50.842;0.166;2023-10-08T13:19:02;6.50;;;2.00;;
15629;SDS011;7914;50.842;0.166;2023-10-08T13:21:28;6.30;;;2.22;;
15629;SDS011;7914;50.842;0.166;2023-10-08T13:23:54;7.47;;;2.50;;
15629;SDS011;7914;50.842;0.166;2023-10-08T13:26:25;5.63;;;1.90;;
15629;SDS011;7914;50.842;0.166;2023-10-08T13:28:56;7.63;;;2.10;;
15629;SDS011;7914;50.842;0.166;2023-10-08T13:31:23;6.40;;;1.98;;
15629;SDS011;7914;50.842;0.166;2023-10-08T13:33:50;6.18;;;2.38;;
15629;SDS011;7914;50.842;0.166;2023-10-08T13:36:17;6.07;;;2.00;;
15629;SDS011;7914;50.842;0.166;2023-10-08T13:38:43;5.93;;;1.90;;
15629;SDS011;7914;50.842;0.166;2023-10-08T13:41:11;6.10;;;2.08;;
15629;SDS011;7914;50.842;0.166;2023-10-08T13:43:43;4.78;;;1.80;;
15629;SDS011;7914;50.842;0.166;2023-10-08T13:46:11;7.60;;;2.25;;
15629;SDS011;7914;50.842;0.166;2023-10-08T13:48:42;6.88;;;1.90;;
15629;SDS011;7914;50.842;0.166;2023-10-08T13:51:20;4.95;;;1.88;;
15629;SDS011;7914;50.842;0.166;2023-10-08T13:53:58;6.65;;;1.65;;
15629;SDS011;7914;50.842;0.166;2023-10-08T13:56:28;8.00;;;1.83;;
15629;SDS011;7914;50.842;0.166;2023-10-08T13:58:56;8.32;;;1.90;;
15629;SDS011;7914;50.842;0.166;2023-10-08T14:01:32;5.78;;;1.92;;
15629;SDS011;7914;50.842;0.166;2023-10-08T14:03:59;4.95;;;1.85;;
15629;SDS011;7914;50.842;0.166;2023-10-08T14:06:31;5.07;;;1.85;;
15629;SDS011;7914;50.842;0.166;2023-10-08T14:09:05;4.85;;;1.60;;
15629;SDS011;7914;50.842;0.166;2023-10-08T14:14:00;3.63;;;1.58;;
15629;SDS011;7914;50.842;0.166;2023-10-08T14:16:33;7.55;;;2.40;;
15629;SDS011;7914;50.842;0.166;2023-10-08T14:19:10;7.70;;;2.00;;
15629;SDS011;7914;50.842;0.166;2023-10-08T14:21:42;8.15;;;2.00;;
15629;SDS011;7914;50.842;0.166;2023-10-08T14:24:25;5.57;;;1.60;;
15629;SDS011;7914;50.842;0.166;2023-10-08T14:26:54;7.00;;;1.95;;
15629;SDS011;7914;50.842;0.166;2023-10-08T14:29:24;5.22;;;1.80;;
15629;SDS011;7914;50.842;0.166;2023-10-08T14:31:52;7.97;;;2.10;;
15629;SDS011;7914;50.842;0.166;2023-10-08T14:34:21;7.13;;;1.83;;
15629;SDS011;7914;50.842;0.166;2023-10-08T14:37:07;7.45;;;1.95;;
15629;SDS011;7914;50.842;0.166;2023-10-08T14:39:52;5.18;;;1.55;;
15629;SDS011;7914;50.842;0.166;2023-10-08T14:42:36;6.05;;;1.70;;
15629;SDS011;7914;50.842;0.166;2023-10-08T14:45:27;6.50;;;2.33;;
15629;SDS011;7914;50.842;0.166;2023-10-08T14:48:00;4.82;;;1.83;;
15629;SDS011;7914;50.842;0.166;2023-10-08T14:50:27;5.00;;;1.70;;
15629;SDS011;7914;50.842;0.166;2023-10-08T14:52:56;5.85;;;1.77;;
15629;SDS011;7914;50.842;0.166;2023-10-08T14:55:25;4.70;;;1.70;;
15629;SDS011;7914;50.842;0.166;2023-10-08T14:57:51;4.63;;;1.52;;
15629;SDS011;7914;50.842;0.166;2023-10-08T15:00:18;5.85;;;2.00;;
15629;SDS011;7914;50.842;0.166;2023-10-08T15:02:50;6.82;;;2.33;;
15629;SDS011;7914;50.842;0.166;2023-10-08T15:05:23;9.95;;;2.22;;
15629;SDS011;7914;50.842;0.166;2023-10-08T15:07:49;5.50;;;1.90;;
15629;SDS011;7914;50.842;0.166;2023-10-08T15:10:15;7.18;;;1.92;;
15629;SDS011;7914;50.842;0.166;2023-10-08T15:12:42;7.95;;;2.00;;
15629;SDS011;7914;50.842;0.166;2023-10-08T15:15:08;4.88;;;1.92;;
15629;SDS011;7914;50.842;0.166;2023-10-08T15:17:43;5.72;;;1.65;;
15629;SDS011;7914;50.842;0.166;2023-10-08T15:20:11;5.72;;;1.70;;
15629;SDS011;7914;50.842;0.166;2023-10-08T15:22:41;6.15;;;2.00;;
15629;SDS011;7914;50.842;0.166;2023-10-08T15:25:11;5.60;;;1.77;;
15629;SDS011;7914;50.842;0.166;2023-10-08T15:27:38;4.32;;;1.60;;
15629;SDS011;7914;50.842;0.166;2023-10-08T15:30:09;6.57;;;1.83;;
15629;SDS011;7914;50.842;0.166;2023-10-08T15:32:40;7.47;;;1.95;;
15629;SDS011;7914;50.842;0.166;2023-10-08T15:35:13;4.88;;;1.80;;
15629;SDS011;7914;50.842;0.166;2023-10-08T15:37:49;4.68;;;2.15;;
15629;SDS011;7914;50.842;0.166;2023-10-08T15:40:15;4.65;;;1.60;;
15629;SDS011;7914;50.842;0.166;2023-10-08T15:42:46;12.15;;;3.22;;